createdAt,value
2022-10-22T00:02:03.265Z,18.73
2022-10-22T00:04:35.402Z,18.76
2022-10-22T00:07:06.012Z,18.72
2022-10-22T00:09:36.206Z,18.72
2022-10-22T00:12:06.765Z,18.74
2022-10-22T00:14:37.338Z,18.73
2022-10-22T00:17:11.193Z,18.73
2022-10-22T00:19:42.207Z,18.73
2022-10-22T00:22:14.313Z,18.64
2022-10-22T00:24:44.652Z,18.64
2022-10-22T00:27:15.150Z,18.66
2022-10-22T00:29:45.228Z,18.74
2022-10-22T00:32:16.931Z,18.67
2022-10-22T00:34:47.333Z,18.77
2022-10-22T00:37:17.440Z,18.67
2022-10-22T00:39:47.026Z,18.79
2022-10-22T00:42:24.497Z,18.69
2022-10-22T00:45:19.591Z,18.74
2022-10-22T00:48:07.230Z,18.80
2022-10-22T00:50:46.544Z,18.84
2022-10-22T00:53:20.632Z,18.99
2022-10-22T00:55:54.560Z,19.10
2022-10-22T00:58:28.037Z,19.13
2022-10-22T01:00:59.155Z,19.08
2022-10-22T01:03:29.824Z,19.11
2022-10-22T01:06:02.646Z,19.20
2022-10-22T01:08:50.069Z,19.25
2022-10-22T01:11:55.322Z,19.25
2022-10-22T01:14:30.637Z,19.24
2022-10-22T01:17:06.854Z,19.03
2022-10-22T01:20:02.975Z,19.04
2022-10-22T01:22:47.875Z,18.90
2022-10-22T01:25:37.071Z,18.93
2022-10-22T01:28:28.822Z,18.89
2022-10-22T01:31:00.873Z,18.82
2022-10-22T01:33:32.432Z,18.80
2022-10-22T01:36:03.621Z,18.83
2022-10-22T01:38:34.630Z,18.93
2022-10-22T01:41:05.331Z,18.99
2022-10-22T01:43:35.576Z,18.99
2022-10-22T01:46:07.739Z,18.84
2022-10-22T01:49:26.571Z,18.89
2022-10-22T01:52:08.839Z,18.93
2022-10-22T01:54:48.252Z,18.89
2022-10-22T01:57:25.718Z,18.87
2022-10-22T02:00:13.353Z,18.94
2022-10-22T02:03:02.388Z,18.94
2022-10-22T02:05:42.576Z,19.10
2022-10-22T02:08:27.005Z,19.15
2022-10-22T02:10:59.046Z,19.20
2022-10-22T02:13:50.044Z,19.21
2022-10-22T02:16:39.575Z,19.17
2022-10-22T02:19:29.844Z,19.21
2022-10-22T02:22:00.143Z,19.04
2022-10-22T02:24:29.956Z,19.03
2022-10-22T02:27:24.234Z,18.90
2022-10-22T02:30:08.632Z,18.79
2022-10-22T02:32:50.942Z,18.82
2022-10-22T02:35:24.796Z,18.80
2022-10-22T02:37:56.850Z,18.79
2022-10-22T02:40:28.309Z,18.73
2022-10-22T02:42:58.512Z,18.74
2022-10-22T02:45:29.523Z,18.76
2022-10-22T02:48:00.237Z,18.72
2022-10-22T02:50:30.560Z,18.66
2022-10-22T02:53:00.379Z,18.59
2022-10-22T02:55:30.416Z,18.42
2022-10-22T02:58:00.095Z,18.29
2022-10-22T03:00:30.399Z,18.26
2022-10-22T03:03:00.525Z,18.39
2022-10-22T03:05:31.082Z,18.26
2022-10-22T03:08:01.302Z,18.31
2022-10-22T03:10:31.617Z,18.43
2022-10-22T03:13:01.407Z,18.53
2022-10-22T03:15:31.285Z,18.39
2022-10-22T03:18:01.639Z,18.43
2022-10-22T03:20:31.685Z,18.53
2022-10-22T03:23:02.715Z,18.53
2022-10-22T03:25:35.674Z,18.45
2022-10-22T03:28:09.834Z,18.55
2022-10-22T03:30:40.062Z,18.63
2022-10-22T03:33:10.190Z,18.70
2022-10-22T03:35:47.014Z,18.74
2022-10-22T03:38:17.447Z,18.77
2022-10-22T03:40:49.137Z,18.79
2022-10-22T03:43:19.460Z,18.79
2022-10-22T03:45:49.261Z,18.77
2022-10-22T03:48:19.428Z,18.77
2022-10-22T03:50:49.733Z,18.76
2022-10-22T03:53:19.808Z,18.76
2022-10-22T03:55:49.810Z,18.76
2022-10-22T03:58:19.764Z,18.70
2022-10-22T04:00:49.787Z,18.70
2022-10-22T04:03:19.705Z,18.66
2022-10-22T04:05:49.780Z,18.76
2022-10-22T04:08:19.686Z,18.73
2022-10-22T04:10:55.855Z,18.76
2022-10-22T04:13:26.476Z,18.56
2022-10-22T04:15:56.651Z,18.66
2022-10-22T04:18:26.855Z,18.66
2022-10-22T04:20:57.125Z,18.70
2022-10-22T04:23:26.977Z,18.70
2022-10-22T04:26:05.249Z,18.60
2022-10-22T04:28:36.441Z,18.70
2022-10-22T04:31:17.811Z,18.73
2022-10-22T04:33:48.474Z,18.72
2022-10-22T04:36:20.271Z,18.79
2022-10-22T04:38:55.658Z,18.80
2022-10-22T04:41:29.325Z,18.77
2022-10-22T04:44:00.522Z,18.64
2022-10-22T04:46:32.850Z,18.72
2022-10-22T04:49:05.096Z,18.73
2022-10-22T04:51:35.240Z,18.83
2022-10-22T04:54:05.673Z,18.70
2022-10-22T04:56:35.931Z,18.52
2022-10-22T04:59:06.822Z,18.48
2022-10-22T05:01:43.116Z,18.46
2022-10-22T05:04:16.211Z,18.41
2022-10-22T05:06:47.019Z,18.39
2022-10-22T05:09:20.158Z,18.31
2022-10-22T05:11:53.210Z,18.36
2022-10-22T05:14:26.034Z,18.29
2022-10-22T05:16:56.581Z,18.28
2022-10-22T05:19:31.306Z,18.24
2022-10-22T05:22:06.075Z,18.32
2022-10-22T05:24:38.284Z,18.26
2022-10-22T05:27:08.569Z,18.35
2022-10-22T05:29:38.959Z,18.35
2022-10-22T05:32:09.466Z,18.43
2022-10-22T05:34:39.676Z,18.42
2022-10-22T05:37:10.580Z,18.42
2022-10-22T05:39:42.787Z,18.36
2022-10-22T05:42:13.957Z,18.33
2022-10-22T05:44:44.275Z,18.41
2022-10-22T05:47:14.614Z,18.38
2022-10-22T05:49:44.240Z,18.41
2022-10-22T05:52:14.142Z,18.21
2022-10-22T05:54:44.625Z,18.31
2022-10-22T05:57:14.783Z,18.33
2022-10-22T05:59:44.873Z,18.45
2022-10-22T06:02:15.670Z,18.55
2022-10-22T06:04:46.034Z,18.57
2022-10-22T06:07:17.445Z,18.60
2022-10-22T06:09:51.383Z,18.60
2022-10-22T06:12:21.878Z,18.63
2022-10-22T06:14:52.152Z,18.62
2022-10-22T06:17:22.392Z,18.56
2022-10-22T06:19:52.201Z,18.60
2022-10-22T06:22:22.436Z,18.63
2022-10-22T06:24:52.123Z,18.66
2022-10-22T06:27:22.218Z,18.67
2022-10-22T06:29:52.417Z,18.67
2022-10-22T06:32:22.707Z,18.70
2022-10-22T06:34:53.177Z,18.60
2022-10-22T06:37:23.491Z,18.57
2022-10-22T06:39:53.447Z,18.59
2022-10-22T06:42:24.125Z,18.64
2022-10-22T06:44:54.800Z,18.64
2022-10-22T06:47:25.315Z,18.52
2022-10-22T06:49:55.557Z,18.39
2022-10-22T06:52:25.805Z,18.25
2022-10-22T06:54:55.943Z,18.24
2022-10-22T06:57:26.263Z,18.16
2022-10-22T06:59:56.291Z,18.18
2022-10-22T07:02:26.516Z,18.25
2022-10-22T07:04:57.337Z,18.39
2022-10-22T07:07:27.590Z,18.38
2022-10-22T07:09:57.783Z,18.28
2022-10-22T07:12:28.200Z,18.19
2022-10-22T07:14:58.591Z,18.16
2022-10-22T07:17:28.950Z,18.19
2022-10-22T07:19:58.696Z,18.31
2022-10-22T07:22:29.357Z,18.38
2022-10-22T07:25:01.599Z,18.36
2022-10-22T07:27:34.187Z,18.35
2022-10-22T07:30:04.494Z,18.24
2022-10-22T07:32:34.688Z,18.21
2022-10-22T07:35:05.761Z,18.24
2022-10-22T07:37:36.094Z,18.15
2022-10-22T07:40:06.350Z,18.15
2022-10-22T07:42:36.479Z,18.24
2022-10-22T07:45:07.024Z,18.22
2022-10-22T07:47:37.299Z,18.21
2022-10-22T07:50:08.620Z,18.13
2022-10-22T07:52:39.242Z,18.06
2022-10-22T07:55:10.274Z,18.01
2022-10-22T07:57:40.984Z,18.02
2022-10-22T08:00:12.596Z,17.98
2022-10-22T08:02:42.777Z,17.97
2022-10-22T08:05:14.646Z,17.91
2022-10-22T08:07:45.109Z,17.88
2022-10-22T08:10:15.537Z,17.87
2022-10-22T08:12:45.913Z,17.90
2022-10-22T08:15:16.439Z,17.91
2022-10-22T08:17:46.685Z,17.90
2022-10-22T08:20:17.486Z,17.88
2022-10-22T08:22:47.873Z,17.87
2022-10-22T08:25:19.291Z,17.81
2022-10-22T08:27:49.796Z,17.85
2022-10-22T08:30:20.047Z,17.82
2022-10-22T08:32:53.078Z,17.81
2022-10-22T08:35:24.485Z,17.77
2022-10-22T08:37:54.340Z,17.74
2022-10-22T08:40:38.979Z,17.66
2022-10-22T08:43:15.504Z,17.67
2022-10-22T08:46:04.480Z,17.61
2022-10-22T08:48:44.110Z,17.57
2022-10-22T08:51:18.437Z,17.57
2022-10-22T08:54:06.839Z,17.55
2022-10-22T08:56:42.693Z,17.57
2022-10-22T08:59:13.075Z,17.55
2022-10-22T09:01:48.347Z,17.53
2022-10-22T09:04:33.669Z,17.54
2022-10-22T09:07:03.903Z,17.57
2022-10-22T09:09:41.354Z,17.50
2022-10-22T09:12:20.102Z,17.49
2022-10-22T09:14:50.811Z,17.44
2022-10-22T09:17:42.933Z,17.47
2022-10-22T09:20:19.733Z,17.53
2022-10-22T09:23:23.806Z,17.51
2022-10-22T09:25:54.437Z,17.53
2022-10-22T09:28:24.730Z,17.54
2022-10-22T09:30:54.669Z,17.60
2022-10-22T09:33:28.711Z,17.60
2022-10-22T09:36:08.101Z,17.66
2022-10-22T09:38:47.799Z,17.71
2022-10-22T09:41:19.140Z,17.74
2022-10-22T09:43:50.233Z,17.88
2022-10-22T09:46:25.087Z,18.01
2022-10-22T09:49:03.459Z,18.06
2022-10-22T09:52:02.114Z,17.97
2022-10-22T09:54:35.132Z,18.02
2022-10-22T09:57:23.790Z,18.09
2022-10-22T09:59:56.572Z,18.15
2022-10-22T10:02:38.742Z,18.21
2022-10-22T10:05:10.397Z,18.24
2022-10-22T10:07:40.921Z,18.25
2022-10-22T10:10:50.038Z,18.33
2022-10-22T10:13:32.325Z,18.48
2022-10-22T10:16:09.569Z,18.49
2022-10-22T10:19:03.750Z,18.52
2022-10-22T10:21:44.966Z,18.57
2022-10-22T10:24:18.338Z,18.63
2022-10-22T10:27:15.312Z,18.74
2022-10-22T10:30:06.457Z,18.89
2022-10-22T10:32:55.101Z,18.93
2022-10-22T10:35:56.447Z,19.01
2022-10-22T10:38:51.883Z,19.08
2022-10-22T10:41:35.780Z,19.17
2022-10-22T10:44:16.359Z,19.39
2022-10-22T10:46:49.649Z,19.66
2022-10-22T10:49:26.552Z,20.02
2022-10-22T10:52:18.823Z,20.03
2022-10-22T10:55:02.601Z,19.90
2022-10-22T10:57:48.532Z,19.92
2022-10-22T11:00:22.637Z,19.85
2022-10-22T11:03:17.758Z,20.17
2022-10-22T11:05:59.811Z,20.46
2022-10-22T11:09:00.945Z,20.46
2022-10-22T11:11:33.561Z,20.19
2022-10-22T11:14:18.223Z,19.87
2022-10-22T11:17:02.887Z,19.87
2022-10-22T11:19:54.602Z,20.08
2022-10-22T11:23:18.014Z,20.41
2022-10-22T11:25:49.747Z,20.51
2022-10-22T11:28:30.044Z,20.90
2022-10-22T11:31:15.903Z,21.14
2022-10-22T11:34:09.935Z,21.28
2022-10-22T11:36:53.078Z,21.28
2022-10-22T11:39:36.886Z,21.08
2022-10-22T11:42:11.772Z,20.80
2022-10-22T11:45:16.783Z,20.65
2022-10-22T11:48:09.436Z,20.74
2022-10-22T11:51:02.972Z,20.61
2022-10-22T11:53:40.420Z,20.58
2022-10-22T11:56:14.263Z,20.58
2022-10-22T11:58:52.243Z,20.60
2022-10-22T12:01:30.897Z,20.58
2022-10-22T12:04:01.242Z,20.60
2022-10-22T12:06:51.136Z,20.77
2022-10-22T12:09:23.886Z,20.78
2022-10-22T12:11:54.183Z,20.91
2022-10-22T12:14:41.881Z,20.94
2022-10-22T12:17:16.219Z,21.01
2022-10-22T12:19:49.172Z,21.05
2022-10-22T12:22:25.127Z,21.14
2022-10-22T12:25:02.013Z,21.19
2022-10-22T12:27:42.576Z,21.16
2022-10-22T12:30:31.678Z,21.29
2022-10-22T12:33:02.313Z,21.41
2022-10-22T12:35:44.084Z,21.57
2022-10-22T12:38:25.095Z,21.67
2022-10-22T12:40:57.974Z,21.82
2022-10-22T12:43:31.346Z,21.80
2022-10-22T12:46:02.601Z,21.83
2022-10-22T12:48:35.727Z,21.93
2022-10-22T12:51:11.250Z,21.72
2022-10-22T12:53:54.707Z,21.76
2022-10-22T12:56:28.295Z,21.85
2022-10-22T12:59:01.955Z,21.77
2022-10-22T13:01:43.723Z,21.87
2022-10-22T13:04:32.316Z,21.90
2022-10-22T13:07:18.242Z,22.00
2022-10-22T13:10:01.729Z,21.87
2022-10-22T13:12:39.237Z,21.86
2022-10-22T13:15:23.342Z,21.75
2022-10-22T13:18:06.072Z,21.76
2022-10-22T13:20:38.596Z,21.89
2022-10-22T13:23:21.038Z,21.87
2022-10-22T13:26:10.253Z,21.97
2022-10-22T13:28:40.644Z,22.04
2022-10-22T13:31:24.377Z,22.18
2022-10-22T13:34:12.901Z,22.25
2022-10-22T13:36:43.181Z,22.35
2022-10-22T13:39:26.506Z,22.43
2022-10-22T13:41:56.672Z,22.73
2022-10-22T13:44:26.752Z,22.85
2022-10-22T13:46:57.484Z,22.88
2022-10-22T13:49:27.795Z,23.10
2022-10-22T13:51:58.057Z,23.03
2022-10-22T13:54:28.811Z,22.94
2022-10-22T13:56:58.814Z,22.81
2022-10-22T13:59:28.839Z,22.96
2022-10-22T14:01:58.861Z,23.10
2022-10-22T14:04:29.128Z,23.13
2022-10-22T14:07:01.367Z,23.09
2022-10-22T14:09:33.972Z,23.20
2022-10-22T14:12:04.149Z,23.22
2022-10-22T14:14:33.927Z,23.37
2022-10-22T14:17:04.244Z,23.34
2022-10-22T14:19:34.725Z,23.17
2022-10-22T14:22:06.146Z,23.24
2022-10-22T14:24:36.328Z,23.26
2022-10-22T14:27:06.308Z,23.06
2022-10-22T14:29:35.974Z,23.13
2022-10-22T14:32:08.123Z,23.68
2022-10-22T14:34:38.402Z,24.02
2022-10-22T14:37:19.656Z,24.32
2022-10-22T14:39:53.767Z,24.53
2022-10-22T14:42:24.020Z,23.96
2022-10-22T14:44:53.638Z,23.88
2022-10-22T14:47:23.670Z,23.81
2022-10-22T14:49:53.852Z,23.66
2022-10-22T14:52:23.704Z,23.64
2022-10-22T14:54:54.931Z,23.64
2022-10-22T14:57:25.748Z,23.54
2022-10-22T14:59:56.131Z,23.71
2022-10-22T15:02:27.327Z,23.81
2022-10-22T15:07:32.540Z,23.53
2022-10-22T15:10:02.758Z,23.50
2022-10-22T15:12:33.041Z,23.39
2022-10-22T15:15:03.326Z,23.39
2022-10-22T15:17:33.580Z,23.42
2022-10-22T15:20:05.376Z,23.49
2022-10-22T15:22:39.272Z,23.53
2022-10-22T15:25:10.774Z,23.63
2022-10-22T15:27:41.439Z,23.63
2022-10-22T15:30:11.831Z,23.57
2022-10-22T15:32:42.498Z,23.71
2022-10-22T15:35:12.886Z,23.42
2022-10-22T15:37:42.631Z,23.45
2022-10-22T15:40:12.812Z,23.53
2022-10-22T15:42:43.306Z,23.39
2022-10-22T15:45:13.622Z,23.57
2022-10-22T15:47:47.701Z,23.68
2022-10-22T15:50:18.626Z,24.75
2022-10-22T15:52:48.982Z,24.97
2022-10-22T15:55:20.131Z,24.68
2022-10-22T15:57:58.045Z,24.26
2022-10-22T16:00:30.801Z,24.00
2022-10-22T16:03:01.208Z,23.98
2022-10-22T16:05:31.514Z,23.87
2022-10-22T16:08:01.728Z,23.88
2022-10-22T16:10:31.898Z,23.78
2022-10-22T16:13:01.506Z,23.94
2022-10-22T16:15:31.339Z,23.82
2022-10-22T16:18:00.982Z,24.65
2022-10-22T16:20:31.139Z,25.44
2022-10-22T16:23:01.300Z,26.12
2022-10-22T16:25:31.655Z,26.02
2022-10-22T16:28:01.791Z,25.98
2022-10-22T16:30:33.741Z,26.08
2022-10-22T16:33:05.481Z,26.43
2022-10-22T16:35:35.992Z,26.67
2022-10-22T16:38:06.211Z,26.59
2022-10-22T16:40:36.611Z,26.18
2022-10-22T16:43:07.456Z,26.03
2022-10-22T16:45:37.925Z,26.46
2022-10-22T16:48:08.083Z,26.47
2022-10-22T16:50:41.246Z,26.37
2022-10-22T16:53:11.409Z,26.08
2022-10-22T16:55:42.492Z,26.25
2022-10-22T16:58:12.715Z,26.09
2022-10-22T17:00:44.353Z,26.44
2022-10-22T17:03:14.930Z,26.74
2022-10-22T17:05:45.124Z,26.40
2022-10-22T17:08:15.716Z,26.26
2022-10-22T17:10:45.904Z,26.25
2022-10-22T17:13:16.221Z,26.40
2022-10-22T17:15:46.429Z,26.57
2022-10-22T17:18:16.721Z,26.67
2022-10-22T17:20:47.087Z,26.33
2022-10-22T17:23:17.330Z,25.71
2022-10-22T17:25:47.583Z,25.92
2022-10-22T17:28:17.816Z,26.30
2022-10-22T17:30:48.080Z,26.47
2022-10-22T17:33:18.382Z,26.54
2022-10-22T17:35:50.630Z,26.60
2022-10-22T17:38:20.775Z,26.61
2022-10-22T17:40:50.872Z,26.65
2022-10-22T17:43:21.274Z,26.80
2022-10-22T17:45:51.530Z,26.59
2022-10-22T17:48:21.644Z,26.05
2022-10-22T17:50:52.851Z,26.33
2022-10-22T17:53:25.974Z,26.36
2022-10-22T17:56:02.867Z,26.15
2022-10-22T17:58:32.997Z,26.18
2022-10-22T18:01:03.680Z,26.03
2022-10-22T18:03:34.907Z,26.22
2022-10-22T18:06:11.383Z,25.95
2022-10-22T18:08:41.659Z,26.25
2022-10-22T18:11:14.578Z,26.30
2022-10-22T18:13:45.519Z,26.36
2022-10-22T18:16:15.812Z,26.06
2022-10-22T18:18:54.252Z,26.18
2022-10-22T18:21:26.858Z,26.28
2022-10-22T18:23:58.305Z,25.85
2022-10-22T18:26:29.006Z,26.05
2022-10-22T18:29:00.348Z,26.23
2022-10-22T18:31:31.783Z,26.57
2022-10-22T18:34:02.082Z,26.42
2022-10-22T18:36:32.444Z,26.59
2022-10-22T18:39:03.853Z,25.57
2022-10-22T18:41:35.485Z,25.20
2022-10-22T18:44:08.742Z,25.64
2022-10-22T18:46:41.769Z,25.84
2022-10-22T18:49:19.304Z,25.98
2022-10-22T18:51:53.733Z,25.89
2022-10-22T18:54:24.613Z,25.69
2022-10-22T18:57:02.580Z,26.33
2022-10-22T18:59:33.195Z,27.43
2022-10-22T19:02:03.991Z,28.17
2022-10-22T19:04:38.187Z,27.74
2022-10-22T19:09:44.976Z,29.13
2022-10-22T19:12:17.126Z,29.74
2022-10-22T19:14:47.272Z,27.51
2022-10-22T19:17:17.482Z,27.86
2022-10-22T19:19:47.625Z,27.31
2022-10-22T19:22:18.180Z,26.32
2022-10-22T19:24:53.103Z,26.30
2022-10-22T19:27:23.512Z,26.33
2022-10-22T19:29:53.791Z,26.39
2022-10-22T19:32:26.280Z,26.29
2022-10-22T19:34:59.036Z,26.10
2022-10-22T19:37:28.576Z,26.37
2022-10-22T19:39:58.355Z,26.08
2022-10-22T19:42:28.620Z,26.29
2022-10-22T19:44:59.422Z,26.39
2022-10-22T19:47:30.535Z,26.20
2022-10-22T19:50:01.009Z,25.91
2022-10-22T19:52:31.214Z,25.78
2022-10-22T19:55:01.487Z,25.85
2022-10-22T19:57:31.892Z,25.77
2022-10-22T20:00:02.268Z,25.67
2022-10-22T20:02:40.200Z,25.57
2022-10-22T20:05:10.988Z,25.95
2022-10-22T20:07:41.523Z,26.56
2022-10-22T20:10:13.179Z,26.61
2022-10-22T20:12:43.595Z,26.36
2022-10-22T20:15:15.524Z,25.61
2022-10-22T20:17:46.215Z,24.96
2022-10-22T20:20:16.997Z,24.79
2022-10-22T20:22:47.824Z,24.49
2022-10-22T20:25:18.506Z,24.42
2022-10-22T20:27:48.841Z,24.33
2022-10-22T20:30:20.798Z,24.32
2022-10-22T20:32:51.193Z,25.78
2022-10-22T20:35:21.697Z,25.81
2022-10-22T20:37:52.025Z,25.04
2022-10-22T20:40:22.382Z,25.10
2022-10-22T20:42:52.614Z,24.94
2022-10-22T20:45:22.802Z,24.82
2022-10-22T20:48:02.103Z,25.64
2022-10-22T20:50:33.503Z,25.96
2022-10-22T20:53:04.045Z,25.60
2022-10-22T20:55:34.303Z,25.42
2022-10-22T20:58:05.331Z,24.47
2022-10-22T21:00:37.414Z,24.17
2022-10-22T21:03:09.089Z,23.98
2022-10-22T21:05:39.527Z,23.75
2022-10-22T21:08:11.568Z,23.68
2022-10-22T21:10:41.761Z,23.54
2022-10-22T21:13:11.879Z,23.49
2022-10-22T21:15:42.418Z,23.34
2022-10-22T21:18:12.867Z,23.24
2022-10-22T21:20:43.666Z,23.09
2022-10-22T21:23:14.519Z,22.99
2022-10-22T21:25:57.920Z,22.86
2022-10-22T21:31:00.362Z,22.59
2022-10-22T21:33:30.733Z,22.45
2022-10-22T21:36:00.982Z,22.30
2022-10-22T21:38:31.221Z,22.18
2022-10-22T21:41:05.397Z,22.11
2022-10-22T21:43:38.201Z,22.04
2022-10-22T21:46:10.973Z,21.97
2022-10-22T21:48:44.058Z,21.86
2022-10-22T21:51:17.226Z,21.85
2022-10-22T21:53:48.442Z,21.76
2022-10-22T21:56:21.899Z,21.76
2022-10-22T21:58:52.073Z,21.62
2022-10-22T22:01:21.864Z,21.55
2022-10-22T22:03:53.329Z,21.46
2022-10-22T22:06:28.359Z,21.43
2022-10-22T22:09:03.925Z,21.38
2022-10-22T22:11:34.993Z,21.34
2022-10-22T22:14:05.202Z,21.21
2022-10-22T22:16:35.420Z,21.15
2022-10-22T22:19:10.501Z,21.05
2022-10-22T22:22:00.183Z,21.01
2022-10-22T22:24:30.364Z,20.97
2022-10-22T22:27:00.043Z,20.95
2022-10-22T22:29:30.214Z,20.85
2022-10-22T22:31:59.818Z,20.84
2022-10-22T22:34:29.736Z,20.68
2022-10-22T22:36:59.824Z,20.63
2022-10-22T22:39:30.588Z,20.56
2022-10-22T22:42:01.018Z,20.54
2022-10-22T22:44:31.126Z,20.48
2022-10-22T22:47:01.531Z,20.44
2022-10-22T22:49:31.724Z,20.40
2022-10-22T22:52:01.474Z,20.37
2022-10-22T22:54:31.848Z,20.33
2022-10-22T22:57:02.436Z,20.27
2022-10-22T22:59:32.583Z,20.20
2022-10-22T23:02:02.849Z,20.17
2022-10-22T23:04:33.172Z,20.10
2022-10-22T23:07:03.564Z,20.09
2022-10-22T23:09:33.706Z,20.02
2022-10-22T23:12:03.890Z,20.05
2022-10-22T23:14:34.069Z,20.05
2022-10-22T23:17:04.433Z,19.96
2022-10-22T23:19:34.738Z,19.97
2022-10-22T23:22:05.232Z,19.99
2022-10-22T23:24:35.388Z,19.99
2022-10-22T23:27:06.344Z,20.02
2022-10-22T23:29:37.691Z,19.96
2022-10-22T23:32:14.456Z,20.00
2022-10-22T23:34:44.669Z,20.02
2022-10-22T23:37:14.537Z,20.08
2022-10-22T23:39:44.412Z,20.10
2022-10-22T23:42:14.810Z,19.95
2022-10-22T23:44:44.983Z,19.81
2022-10-22T23:47:15.267Z,19.62
2022-10-22T23:49:44.864Z,19.51
2022-10-22T23:52:14.955Z,19.42
2022-10-22T23:54:44.867Z,19.57
2022-10-22T23:57:14.934Z,19.57
2022-10-22T23:59:45.130Z,19.50
